Terminal Aerodrome Forecast
Issued by NWS

Home | Current Version | Previous Version | Text Only | Print | Product List | Glossary On
Versions: 1 2 3 4 5 6 7 8 9 10 11 12 13 14 15 16 17
000
FTUS43 KMQT 220900 AAA
TAFCMX
TAF AMD
KCMX 220909Z 2209/2306 18007KT 1SM -SN BR OVC004
     FM221100 17007KT 3SM -SN OVC007
     FM221400 14008KT 5SM -SN OVC020
     FM221900 13008KT P6SM OVC025=

USA.gov is the U.S. government's official web portal to all federal, state and local government web resources and services.